createdAt,value
2018-03-20T00:00:03.732Z,82.97
2018-03-20T00:01:13.268Z,83.06
2018-03-20T00:02:23.057Z,82.78
2018-03-20T00:03:32.847Z,82.87
2018-03-20T00:04:42.920Z,82.68
2018-03-20T00:05:52.999Z,83.15
2018-03-20T00:07:03.070Z,82.87
2018-03-20T00:08:12.614Z,83.15
2018-03-20T00:09:22.692Z,83.15
2018-03-20T00:10:32.763Z,82.97
2018-03-20T00:11:42.551Z,83.15
2018-03-20T00:12:52.609Z,83.15
2018-03-20T00:14:02.154Z,82.97
2018-03-20T00:15:11.950Z,83.06
2018-03-20T00:16:21.741Z,82.97
2018-03-20T00:17:31.794Z,83.06
2018-03-20T00:18:41.582Z,83.06
2018-03-20T00:19:51.107Z,82.87
2018-03-20T00:21:01.208Z,82.97
2018-03-20T00:22:10.741Z,83.15
2018-03-20T00:23:20.783Z,82.87
2018-03-20T00:24:30.439Z,83.06
2018-03-20T00:25:40.511Z,83.02
2018-03-20T00:26:50.297Z,82.92
2018-03-20T00:27:59.850Z,82.97
2018-03-20T00:29:09.654Z,83.15
2018-03-20T00:30:19.523Z,82.97
2018-03-20T00:31:29.593Z,83.15
2018-03-20T00:32:39.173Z,82.97
2018-03-20T00:33:48.988Z,83.11
2018-03-20T00:34:58.781Z,82.97
2018-03-20T00:36:08.321Z,82.97
2018-03-20T00:37:17.835Z,83.15
2018-03-20T00:38:27.629Z,83.15
2018-03-20T00:39:37.712Z,82.87
2018-03-20T00:40:47.251Z,82.97
2018-03-20T00:41:57.320Z,82.97
2018-03-20T00:43:06.843Z,83.15
2018-03-20T00:44:16.903Z,82.97
2018-03-20T00:45:26.443Z,83.06
2018-03-20T00:46:36.237Z,82.87
2018-03-20T00:47:45.579Z,83.06
2018-03-20T00:48:55.367Z,82.97
2018-03-20T00:50:05.464Z,83.06
2018-03-20T00:51:15.510Z,82.97
2018-03-20T00:52:25.312Z,82.97
2018-03-20T00:53:35.440Z,82.97
2018-03-20T00:54:44.961Z,82.97
2018-03-20T00:55:55.011Z,83.06
2018-03-20T00:57:04.814Z,83.15
2018-03-20T00:58:14.071Z,82.97
2018-03-20T00:59:23.617Z,82.97
2018-03-20T01:00:33.685Z,83.15
2018-03-20T01:01:43.478Z,82.97
2018-03-20T01:02:53.014Z,83.06
2018-03-20T01:04:02.551Z,83.53
2018-03-20T01:05:12.414Z,83.06
2018-03-20T01:06:22.472Z,82.97
2018-03-20T01:07:32.550Z,82.97
2018-03-20T01:08:42.138Z,82.97
2018-03-20T01:09:52.222Z,82.87
2018-03-20T01:11:02.055Z,83.06
2018-03-20T01:12:11.573Z,82.97
2018-03-20T01:13:21.378Z,82.97
2018-03-20T01:14:31.476Z,83.53
2018-03-20T01:15:41.538Z,82.97
2018-03-20T01:16:51.655Z,82.97
2018-03-20T01:18:00.927Z,82.97
2018-03-20T01:19:10.722Z,83.06
2018-03-20T01:20:20.774Z,83.06
2018-03-20T01:21:30.580Z,83.15
2018-03-20T01:22:40.653Z,83.34
2018-03-20T01:23:50.446Z,83.34
2018-03-20T01:25:00.237Z,83.53
2018-03-20T01:26:10.517Z,83.34
2018-03-20T01:27:20.317Z,83.06
2018-03-20T01:28:30.361Z,83.53
2018-03-20T01:29:40.434Z,83.34
2018-03-20T01:30:50.499Z,83.34
2018-03-20T01:32:00.297Z,83.34
2018-03-20T01:33:10.334Z,83.34
2018-03-20T01:34:20.449Z,83.63
2018-03-20T01:35:30.510Z,83.06
2018-03-20T01:36:40.569Z,83.15
2018-03-20T01:37:50.636Z,83.34
2018-03-20T01:39:00.420Z,83.06
2018-03-20T01:40:10.526Z,83.82
2018-03-20T01:41:20.577Z,83.34
2018-03-20T01:42:30.643Z,83.15
2018-03-20T01:43:40.175Z,83.53
2018-03-20T01:44:50.218Z,83.63
2018-03-20T01:46:00.522Z,83.4
2018-03-20T01:47:10.604Z,83.3
2018-03-20T01:48:20.654Z,83.3
2018-03-20T01:49:30.727Z,83.11
2018-03-20T01:50:40.789Z,83.3
2018-03-20T01:51:50.905Z,83.02
2018-03-20T01:53:00.694Z,83.3
2018-03-20T01:54:10.513Z,83.25
2018-03-20T01:55:20.305Z,83.44
2018-03-20T01:56:29.848Z,83.11
2018-03-20T01:57:39.653Z,83.25
2018-03-20T01:58:49.713Z,83.15
2018-03-20T01:59:59.776Z,83.21
2018-03-20T02:01:09.556Z,83.34
2018-03-20T02:02:19.338Z,83.34
2018-03-20T02:03:29.424Z,83.3
2018-03-20T02:04:39.485Z,83.15
2018-03-20T02:05:49.300Z,83.63
2018-03-20T02:06:59.360Z,83.49
2018-03-20T02:08:09.415Z,83.53
2018-03-20T02:09:19.458Z,83.4
2018-03-20T02:10:29.505Z,83.34
2018-03-20T02:11:39.301Z,83.44
2018-03-20T02:12:48.824Z,83.34
2018-03-20T02:13:58.612Z,83.25
2018-03-20T02:15:08.735Z,83.02
2018-03-20T02:16:18.784Z,82.97
2018-03-20T02:17:28.604Z,83.06
2018-03-20T02:18:38.421Z,83.53
2018-03-20T02:19:48.485Z,83.21
2018-03-20T02:20:58.537Z,83.68
2018-03-20T02:22:08.326Z,83.44
2018-03-20T02:23:18.391Z,83.53
2018-03-20T02:24:28.191Z,83.53
2018-03-20T02:25:38.237Z,83.53
2018-03-20T02:26:48.079Z,83.3
2018-03-20T02:27:58.147Z,82.97
2018-03-20T02:29:08.298Z,83.59
2018-03-20T02:30:18.361Z,83.53
2018-03-20T02:31:28.431Z,83.63
2018-03-20T02:32:38.288Z,83.3
2018-03-20T02:33:48.126Z,83.63
2018-03-20T02:34:58.213Z,83.25
2018-03-20T02:36:08.024Z,83.25
2018-03-20T02:37:17.826Z,83.34
2018-03-20T02:38:27.951Z,83.34
2018-03-20T02:39:37.993Z,83.06
2018-03-20T02:40:47.786Z,83.06
2018-03-20T02:41:57.857Z,83.49
2018-03-20T02:43:07.903Z,83.3
2018-03-20T02:44:17.957Z,83.59
2018-03-20T02:45:28.028Z,83.59
2018-03-20T02:46:37.834Z,83.59
2018-03-20T02:47:47.626Z,83.4
2018-03-20T02:48:57.692Z,83.3
2018-03-20T02:50:07.770Z,82.92
2018-03-20T02:51:17.846Z,83.3
2018-03-20T02:52:27.929Z,83.21
2018-03-20T02:53:38.011Z,83.3
2018-03-20T02:54:48.060Z,83.49
2018-03-20T02:55:57.641Z,83.3
2018-03-20T02:57:07.726Z,83.59
2018-03-20T02:58:17.788Z,83.59
2018-03-20T02:59:27.871Z,83.59
2018-03-20T03:00:37.673Z,83.34
2018-03-20T03:01:47.850Z,83.3
2018-03-20T03:02:57.908Z,83.63
2018-03-20T03:04:07.753Z,83.11
2018-03-20T03:05:17.818Z,83.34
2018-03-20T03:06:27.360Z,83.34
2018-03-20T03:07:37.232Z,83.11
2018-03-20T03:39:25.448Z,78.5
2018-03-20T03:40:34.984Z,79.06
2018-03-20T03:41:45.018Z,80
2018-03-20T03:42:54.278Z,81.33
2018-03-20T03:44:03.789Z,81.42
2018-03-20T03:45:13.681Z,82.18
2018-03-20T03:46:23.458Z,83.59
2018-03-20T03:47:33.497Z,83.69
2018-03-20T03:48:43.542Z,84.07
2018-03-20T03:49:53.596Z,84.07
2018-03-20T03:51:03.652Z,84.58
2018-03-20T03:52:13.712Z,84.49
2018-03-20T03:53:23.530Z,84.3
2018-03-20T03:54:33.327Z,84.68
2018-03-20T03:55:43.387Z,84.2
2018-03-20T03:56:53.508Z,84.2
2018-03-20T03:58:03.566Z,84.3
2018-03-20T03:59:13.376Z,84.34
2018-03-20T04:00:23.429Z,84.16
2018-03-20T04:01:33.495Z,84.25
2018-03-20T04:02:43.335Z,84.34
2018-03-20T04:03:53.411Z,84.06
2018-03-20T04:05:03.203Z,83.87
2018-03-20T04:06:13.014Z,83.87
2018-03-20T04:07:22.805Z,83.78
2018-03-20T04:08:32.878Z,83.78
2018-03-20T04:09:42.933Z,83.78
2018-03-20T04:10:52.989Z,83.78
2018-03-20T04:12:03.057Z,83.78
2018-03-20T04:13:12.863Z,83.87
2018-03-20T04:14:22.924Z,83.87
2018-03-20T04:15:32.989Z,83.87
2018-03-20T04:16:43.053Z,83.78
2018-03-20T04:17:53.104Z,84.06
2018-03-20T04:19:03.172Z,83.4
2018-03-20T04:20:12.961Z,83.87
2018-03-20T04:21:22.752Z,83.78
2018-03-20T04:22:32.818Z,83.87
2018-03-20T04:23:42.606Z,83.49
2018-03-20T04:24:52.657Z,84.1
2018-03-20T04:26:02.730Z,84.06
2018-03-20T04:27:12.800Z,83.68
2018-03-20T04:28:22.862Z,83.34
2018-03-20T04:29:32.940Z,83.21
2018-03-20T04:30:43.013Z,83.4
2018-03-20T04:31:52.813Z,83.78
2018-03-20T04:33:02.665Z,83.87
2018-03-20T04:34:12.491Z,83.72
2018-03-20T04:35:22.612Z,84.06
2018-03-20T04:36:32.666Z,83.82
2018-03-20T04:37:42.739Z,83.53
2018-03-20T04:38:52.554Z,83.34
2018-03-20T04:40:02.636Z,83.25
2018-03-20T04:41:12.702Z,83.25
2018-03-20T04:42:22.749Z,83.34
2018-03-20T04:43:32.851Z,83.53
2018-03-20T04:44:42.915Z,82.97
2018-03-20T04:45:53.002Z,83.15
2018-03-20T04:47:03.051Z,83.25
2018-03-20T04:48:13.152Z,83.34
2018-03-20T04:49:22.957Z,83.25
2018-03-20T04:50:32.765Z,83.44
2018-03-20T04:51:42.812Z,83.25
2018-03-20T04:52:52.884Z,83.25
2018-03-20T04:54:02.931Z,83.44
2018-03-20T04:55:13.052Z,83.15
2018-03-20T04:56:23.122Z,83.25
2018-03-20T04:57:33.165Z,83.15
2018-03-20T04:58:43.203Z,82.97
2018-03-20T04:59:53.325Z,83.15
2018-03-20T05:01:03.161Z,83.34
2018-03-20T05:02:12.963Z,83.34
2018-03-20T05:03:22.751Z,83.34
2018-03-20T05:04:32.861Z,83.34
2018-03-20T05:05:42.920Z,83.25
2018-03-20T05:06:52.965Z,83.34
2018-03-20T05:08:02.771Z,83.34
2018-03-20T05:09:12.846Z,83.63
2018-03-20T05:10:22.915Z,83.53
2018-03-20T05:11:32.970Z,83.53
2018-03-20T05:12:42.831Z,83.44
2018-03-20T05:13:52.911Z,83.34
2018-03-20T05:15:02.967Z,83.34
2018-03-20T05:16:13.018Z,83.25
2018-03-20T05:17:23.076Z,83.15
2018-03-20T05:18:33.192Z,82.97
2018-03-20T05:19:43.255Z,83.15
2018-03-20T05:20:53.297Z,83.06
2018-03-20T05:22:03.342Z,83.25
2018-03-20T05:23:13.424Z,83.34
2018-03-20T05:24:23.492Z,83.25
2018-03-20T05:25:33.582Z,83.15
2018-03-20T05:26:43.639Z,83.15
2018-03-20T05:27:53.183Z,83.25
2018-03-20T05:29:03.239Z,83.15
2018-03-20T05:30:13.359Z,83.34
2018-03-20T05:31:23.418Z,83.25
2018-03-20T05:32:33.478Z,83.34
2018-03-20T05:33:43.290Z,83.15
2018-03-20T05:34:53.091Z,83.15
2018-03-20T05:36:03.150Z,83.25
2018-03-20T05:37:13.211Z,83.25
2018-03-20T05:38:23.074Z,83.15
2018-03-20T05:39:33.198Z,83.15
2018-03-20T05:40:43.266Z,83.15
2018-03-20T05:41:52.894Z,83.44
2018-03-20T05:43:03.086Z,83.15
2018-03-20T05:44:13.151Z,83.34
2018-03-20T05:45:23.204Z,83.15
2018-03-20T05:46:33.260Z,83.25
2018-03-20T05:47:43.118Z,83.25
2018-03-20T05:48:53.169Z,83.15
2018-03-20T05:50:03.244Z,83.34
2018-03-20T05:51:13.407Z,83.72
2018-03-20T05:52:23.457Z,83.25
2018-03-20T05:53:33.252Z,83.44
2018-03-20T05:54:43.367Z,83.44
2018-03-20T05:55:53.429Z,83.25
2018-03-20T05:57:02.976Z,83.63
2018-03-20T05:58:13.047Z,83.25
2018-03-20T05:59:22.866Z,83.72
2018-03-20T06:00:32.927Z,83.63
2018-03-20T06:01:41.928Z,83.53
2018-03-20T06:02:52.040Z,83.15
2018-03-20T06:04:02.103Z,83.63
2018-03-20T06:05:12.167Z,83.72
2018-03-20T06:06:21.974Z,83.15
2018-03-20T06:07:32.046Z,83.06
2018-03-20T06:08:42.113Z,83.06
2018-03-20T06:09:52.184Z,83.15
2018-03-20T06:11:01.971Z,83.53
2018-03-20T06:12:12.022Z,83.53
2018-03-20T06:13:21.817Z,83.15
2018-03-20T06:14:31.876Z,82.97
2018-03-20T06:15:41.927Z,83.06
2018-03-20T06:16:51.718Z,83.72
2018-03-20T06:18:01.817Z,82.97
2018-03-20T06:19:11.619Z,83.15
2018-03-20T06:20:21.424Z,82.87
2018-03-20T06:21:31.225Z,82.97
2018-03-20T06:22:41.023Z,82.59
2018-03-20T06:23:50.838Z,82.53
2018-03-20T06:25:00.880Z,82.59
2018-03-20T06:26:10.712Z,83.01
2018-03-20T06:27:20.790Z,82.91
2018-03-20T06:28:30.843Z,82.97
2018-03-20T06:29:40.905Z,82.91
2018-03-20T06:30:50.963Z,82.91
2018-03-20T06:32:01.033Z,83.2
2018-03-20T06:33:11.079Z,82.72
2018-03-20T06:34:21.163Z,82.72
2018-03-20T06:35:30.980Z,82.72
2018-03-20T06:36:41.025Z,82.91
2018-03-20T06:37:50.807Z,82.63
2018-03-20T06:39:00.924Z,82.91
2018-03-20T06:40:10.726Z,82.34
2018-03-20T06:41:20.793Z,82.63
2018-03-20T06:42:30.881Z,82.72
2018-03-20T06:43:40.662Z,82.72
2018-03-20T06:44:50.709Z,81.96
2018-03-20T06:46:00.771Z,81.87
2018-03-20T06:47:10.306Z,82.01
2018-03-20T06:48:20.369Z,82.39
2018-03-20T06:49:30.422Z,81.82
2018-03-20T06:50:40.221Z,81.72
2018-03-20T06:51:50.015Z,81.63
2018-03-20T06:52:59.818Z,81.63
2018-03-20T06:54:09.919Z,81.53
2018-03-20T06:55:19.723Z,81.44
2018-03-20T06:56:29.785Z,81.44
2018-03-20T06:57:39.854Z,82.39
2018-03-20T06:58:49.926Z,82.29
2018-03-20T06:59:59.724Z,82.29
2018-03-20T07:01:09.548Z,82.2
2018-03-20T07:02:19.366Z,82.01
2018-03-20T07:03:28.881Z,82.57
2018-03-20T07:04:38.693Z,82.76
2018-03-20T07:05:48.762Z,82.76
2018-03-20T07:06:58.848Z,82.57
2018-03-20T07:08:08.658Z,82.57
2018-03-20T07:09:18.711Z,82.48
2018-03-20T07:10:28.821Z,82.39
2018-03-20T07:11:38.614Z,82.57
2018-03-20T07:12:48.429Z,82.67
2018-03-20T07:13:58.498Z,82.76
2018-03-20T07:15:08.029Z,82.86
2018-03-20T07:16:17.309Z,82.01
2018-03-20T07:17:27.370Z,82.2
2018-03-20T07:18:37.174Z,82.2
2018-03-20T07:19:47.228Z,82.39
2018-03-20T07:20:57.286Z,81.95
2018-03-20T07:22:07.148Z,81.86
2018-03-20T07:23:16.954Z,82.14
2018-03-20T07:24:27.038Z,81.67
2018-03-20T07:25:36.839Z,81.86
2018-03-20T07:26:46.902Z,82.05
2018-03-20T07:27:57.029Z,82.52
2018-03-20T07:29:07.099Z,82.52
2018-03-20T07:30:16.907Z,82.14
2018-03-20T07:31:26.440Z,82.33
2018-03-20T07:32:36.504Z,82.24
2018-03-20T07:33:46.078Z,82.24
2018-03-20T07:34:55.630Z,82.43
2018-03-20T07:36:05.431Z,82.14
2018-03-20T07:37:15.503Z,82.43
2018-03-20T07:38:25.034Z,82.43
2018-03-20T07:39:34.845Z,82.62
2018-03-20T07:40:44.657Z,81.76
2018-03-20T07:41:54.198Z,81.76
2018-03-20T07:43:03.984Z,81.67
2018-03-20T07:44:14.059Z,81.76
2018-03-20T07:45:23.908Z,81.67
2018-03-20T07:46:33.976Z,81.95
2018-03-20T07:47:44.023Z,81.95
2018-03-20T07:48:54.073Z,81.48
2018-03-20T07:50:03.872Z,81.57
2018-03-20T07:51:13.673Z,81.99
2018-03-20T07:52:23.472Z,82.28
2018-03-20T07:53:33.596Z,82.28
2018-03-20T07:54:43.660Z,82.09
2018-03-20T07:55:53.186Z,81.9
2018-03-20T07:57:02.756Z,82.18
2018-03-20T07:58:11.749Z,82.09
2018-03-20T07:59:21.554Z,81.9
2018-03-20T08:00:31.359Z,81.71
2018-03-20T08:01:41.533Z,81.81
2018-03-20T08:02:51.405Z,81.71
2018-03-20T08:04:01.222Z,81.9
2018-03-20T08:05:11.301Z,81.81
2018-03-20T08:06:21.109Z,82.18
2018-03-20T08:07:30.910Z,81.99
2018-03-20T08:08:40.449Z,82.28
2018-03-20T08:09:49.978Z,82.37
2018-03-20T08:10:59.806Z,82.56
2018-03-20T08:12:09.614Z,82.47
2018-03-20T08:13:19.425Z,82.47
2018-03-20T08:14:29.550Z,82.85
2018-03-20T08:15:39.356Z,82.85
2018-03-20T08:16:49.361Z,82.75
2018-03-20T08:17:59.195Z,82.85
2018-03-20T08:19:09.310Z,83.04
2018-03-20T08:20:19.378Z,83.13
2018-03-20T08:21:29.175Z,82.94
2018-03-20T08:22:38.711Z,83.23
2018-03-20T08:23:48.236Z,83.37
2018-03-20T08:24:58.048Z,83.18
2018-03-20T08:26:07.836Z,82.81
2018-03-20T08:27:17.906Z,82.81
2018-03-20T08:28:27.730Z,82.52
2018-03-20T08:29:37.784Z,82.81
2018-03-20T08:30:47.598Z,83
2018-03-20T08:31:57.464Z,83
2018-03-20T08:33:07.291Z,82.81
2018-03-20T08:34:17.294Z,82.81
2018-03-20T08:35:27.152Z,82.81
2018-03-20T08:36:37.435Z,83.09
2018-03-20T08:37:47.822Z,82.81
2018-03-20T08:38:57.876Z,82.56
2018-03-20T08:40:07.967Z,82.75
2018-03-20T08:41:18.021Z,82.56
2018-03-20T08:42:28.105Z,82.47
2018-03-20T08:43:38.257Z,82.85
2018-03-20T08:44:48.086Z,82.94
2018-03-20T08:45:57.910Z,82.94
2018-03-20T08:47:07.722Z,82.18
2018-03-20T08:48:17.299Z,82.09
2018-03-20T08:49:26.839Z,82.28
2018-03-20T08:50:36.904Z,82.47
2018-03-20T08:51:46.963Z,82.28
2018-03-20T08:52:57.050Z,82.47
2018-03-20T08:54:06.838Z,82.47
2018-03-20T08:55:16.660Z,82.28
2018-03-20T08:56:26.210Z,82.56
2018-03-20T08:57:35.766Z,82.28
2018-03-20T08:58:45.938Z,82.32
2018-03-20T08:59:56.006Z,82.32
2018-03-20T09:01:05.536Z,82.94
2018-03-20T09:02:15.808Z,82.89
2018-03-20T09:03:25.375Z,82.51
2018-03-20T09:04:34.653Z,82.51
2018-03-20T09:05:44.216Z,82.42
2018-03-20T09:06:54.113Z,82.13
2018-03-20T09:08:03.397Z,82.13
2018-03-20T09:09:13.481Z,82.13
2018-03-20T09:10:23.264Z,82.32
2018-03-20T09:11:33.354Z,82.32
2018-03-20T09:12:43.422Z,82.32
2018-03-20T09:13:52.950Z,82.32
2018-03-20T09:15:03.074Z,82.98
2018-03-20T09:16:13.171Z,82.89
2018-03-20T09:17:23.275Z,82.51
2018-03-20T09:18:32.872Z,82.32
2018-03-20T09:19:42.937Z,82.32
2018-03-20T09:20:53.016Z,82.32
2018-03-20T09:22:02.542Z,82.32
2018-03-20T09:23:12.806Z,82.32
2018-03-20T09:24:22.927Z,82.51
2018-03-20T09:25:33.186Z,82.51
2018-03-20T09:26:43.246Z,82.32
2018-03-20T09:27:53.342Z,82.32
2018-03-20T09:29:03.155Z,82.13
2018-03-20T09:30:13.273Z,82.23
2018-03-20T09:31:23.084Z,83.08
2018-03-20T09:32:32.905Z,82.13
2018-03-20T09:33:43.019Z,82.32
2018-03-20T09:34:52.807Z,82.6
2018-03-20T09:36:02.923Z,82.51
2018-03-20T09:37:12.729Z,81.85
2018-03-20T09:38:22.260Z,81.75
2018-03-20T09:39:32.312Z,81.98
2018-03-20T09:40:41.855Z,81.75
2018-03-20T09:41:51.414Z,82.32
2018-03-20T09:43:01.218Z,82.51
2018-03-20T09:44:11.273Z,82.98
2018-03-20T09:45:20.805Z,82.79
2018-03-20T09:46:30.863Z,82.89
2018-03-20T09:47:40.499Z,82.13
2018-03-20T09:48:50.627Z,82.65
2018-03-20T09:50:00.420Z,81.7
2018-03-20T09:51:10.493Z,81.88
2018-03-20T09:52:20.552Z,82.27
2018-03-20T09:53:30.669Z,82.65
2018-03-20T09:54:40.735Z,82.13
2018-03-20T09:55:50.530Z,82.51
2018-03-20T09:56:59.816Z,83.17
2018-03-20T09:58:09.352Z,82.98
2018-03-20T09:59:19.196Z,83.17
2018-03-20T10:00:28.735Z,82.98
2018-03-20T10:01:38.543Z,83.08
2018-03-20T10:02:48.092Z,83.17
2018-03-20T10:03:58.164Z,82.7
2018-03-20T10:05:08.220Z,82.6
2018-03-20T10:06:17.747Z,82.27
2018-03-20T10:07:27.827Z,81.88
2018-03-20T10:08:37.365Z,81.98
2018-03-20T10:09:47.418Z,82.17
2018-03-20T10:10:57.268Z,81.98
2018-03-20T10:12:07.340Z,81.65
2018-03-20T10:13:17.402Z,81.26
2018-03-20T10:14:27.473Z,81.45
2018-03-20T10:15:36.763Z,81.84
2018-03-20T10:16:46.657Z,82.12
2018-03-20T10:17:56.463Z,82.21
2018-03-20T10:19:06.516Z,82.03
2018-03-20T10:20:16.752Z,82.21
2018-03-20T10:21:26.675Z,81.74
2018-03-20T10:22:36.242Z,81.74
2018-03-20T10:23:45.763Z,81.84
2018-03-20T10:24:55.566Z,82.55
2018-03-20T10:26:05.181Z,82.93
2018-03-20T10:27:14.755Z,82.55
2018-03-20T10:28:24.605Z,82.93
2018-03-20T10:29:34.223Z,82.84
2018-03-20T10:30:43.794Z,83.22
2018-03-20T10:31:53.590Z,83.94
2018-03-20T10:33:03.399Z,83.27
2018-03-20T10:34:12.935Z,83.84
2018-03-20T10:35:23.077Z,83.27
2018-03-20T10:36:32.996Z,83.36
2018-03-20T10:37:42.805Z,83.74
2018-03-20T10:38:52.624Z,83.74
2018-03-20T10:40:02.739Z,83.65
2018-03-20T10:41:12.537Z,83.74
2018-03-20T10:42:22.065Z,83.55
2018-03-20T10:43:32.120Z,83.27
2018-03-20T10:44:41.660Z,83.17
2018-03-20T10:45:50.932Z,83.36
2018-03-20T10:47:00.714Z,83.17
2018-03-20T10:48:10.631Z,82.98
2018-03-20T10:49:20.436Z,82.51
2018-03-20T10:50:30.497Z,82.98
2018-03-20T10:51:40.314Z,82.23
2018-03-20T10:52:50.103Z,81.88
2018-03-20T10:54:00.173Z,82.17
2018-03-20T10:55:10.019Z,81.88
2018-03-20T10:56:20.064Z,81.98
2018-03-20T10:57:29.596Z,81.45
2018-03-20T10:58:39.117Z,81.45
2018-03-20T10:59:48.921Z,81.65
2018-03-20T11:00:58.457Z,81.84
2018-03-20T11:02:08.006Z,81.45
2018-03-20T11:03:18.067Z,81.36
2018-03-20T11:04:28.145Z,81.36
2018-03-20T11:05:38.222Z,81.59
2018-03-20T11:06:48.009Z,81.4
2018-03-20T11:07:58.096Z,81.12
2018-03-20T11:09:07.621Z,80.74
2018-03-20T11:10:17.673Z,80.3
2018-03-20T11:11:27.520Z,80.3
2018-03-20T11:12:37.056Z,80.02
2018-03-20T11:13:47.167Z,80.21
2018-03-20T11:14:57.015Z,80.3
2018-03-20T11:16:07.093Z,80.4
2018-03-20T11:17:16.891Z,80.05
2018-03-20T11:18:26.695Z,80.15
2018-03-20T11:19:36.526Z,80.53
2018-03-20T11:20:46.338Z,80.24
2018-03-20T11:21:56.153Z,80.44
2018-03-20T11:23:05.947Z,80.82
2018-03-20T11:24:15.494Z,80.82
2018-03-20T11:25:25.547Z,80.91
2018-03-20T11:26:35.137Z,81.01
2018-03-20T11:27:44.940Z,81.2
2018-03-20T11:28:54.751Z,81.38
2018-03-20T11:30:04.543Z,81.77
2018-03-20T11:31:14.609Z,81.96
2018-03-20T11:32:24.462Z,81.67
2018-03-20T11:33:33.998Z,81.86
2018-03-20T11:34:44.100Z,82.2
2018-03-20T11:35:53.904Z,82.39
2018-03-20T11:37:03.960Z,81.92
2018-03-20T11:38:13.818Z,82.1
2018-03-20T11:39:23.900Z,82.49
2018-03-20T11:40:33.950Z,82.77
2018-03-20T11:41:44.022Z,82.35
2018-03-20T11:42:54.074Z,82.92
2018-03-20T11:44:04.185Z,83.11
2018-03-20T11:45:14.260Z,83.2
2018-03-20T11:46:24.326Z,83.2
2018-03-20T11:47:34.383Z,83.01
2018-03-20T11:48:44.440Z,82.82
2018-03-20T11:49:54.570Z,81.73
2018-03-20T11:51:04.660Z,81.73
2018-03-20T11:52:14.739Z,82.01
2018-03-20T11:53:24.534Z,82.01
2018-03-20T11:54:34.611Z,81.82
2018-03-20T11:55:44.456Z,81.44
2018-03-20T11:56:54.008Z,81.54
2018-03-20T11:58:04.061Z,81.63
2018-03-20T11:59:14.148Z,81.73
2018-03-20T12:00:24.233Z,81.63
2018-03-20T12:01:34.291Z,81.63
2018-03-20T12:02:43.818Z,81.44
2018-03-20T12:03:53.892Z,81.92
2018-03-20T12:05:03.944Z,82.1
2018-03-20T12:06:13.744Z,82.1
2018-03-20T12:07:23.870Z,82.2
2018-03-20T12:08:33.941Z,81.92
2018-03-20T12:09:43.739Z,81.82
2018-03-20T12:10:53.808Z,81.63
2018-03-20T12:12:03.342Z,81.63
2018-03-20T12:13:13.471Z,81.48
2018-03-20T12:14:23.570Z,81.86
2018-03-20T12:15:33.652Z,81.01
2018-03-20T12:16:43.736Z,81.1
2018-03-20T12:17:53.552Z,81.67
2018-03-20T12:19:03.621Z,81.86
2018-03-20T12:20:13.687Z,81.48
2018-03-20T12:21:23.761Z,81.48
2018-03-20T12:22:33.548Z,81.77
2018-03-20T12:23:43.614Z,81.67
2018-03-20T12:24:53.731Z,81.77
2018-03-20T12:26:03.803Z,81.86
2018-03-20T12:27:13.639Z,81.38
2018-03-20T12:28:23.702Z,82.05
2018-03-20T12:29:33.514Z,81.86
2018-03-20T12:30:43.052Z,81.77
2018-03-20T12:31:53.203Z,81.48
2018-03-20T12:33:03.064Z,81.48
2018-03-20T12:34:12.612Z,82.05
2018-03-20T12:35:22.422Z,82.24
2018-03-20T12:36:32.505Z,82.24
2018-03-20T12:37:42.615Z,82.05
2018-03-20T12:38:52.451Z,82.43
2018-03-20T12:40:01.972Z,82.58
2018-03-20T12:41:11.763Z,81.92
2018-03-20T12:42:21.619Z,82.34
2018-03-20T12:43:31.396Z,82.01
2018-03-20T12:44:40.962Z,81.86
2018-03-20T12:45:49.963Z,81.92
2018-03-20T12:47:00.019Z,82.1
2018-03-20T12:48:09.620Z,82.68
2018-03-20T12:49:19.412Z,82.49
2018-03-20T12:50:29.234Z,82.96
2018-03-20T12:51:39.021Z,83.11
2018-03-20T12:52:49.107Z,83.11
2018-03-20T12:53:58.975Z,83.3
2018-03-20T12:55:08.826Z,83.39
2018-03-20T12:56:18.623Z,83.11
2018-03-20T12:57:28.180Z,83.3
2018-03-20T12:58:37.715Z,83.39
2018-03-20T12:59:47.307Z,83.01
2018-03-20T13:00:57.406Z,82.64
2018-03-20T13:02:06.943Z,82.21
2018-03-20T13:03:16.737Z,82.45
2018-03-20T13:04:26.838Z,81.97
2018-03-20T13:05:36.436Z,82.07
2018-03-20T13:06:46.032Z,82.26
2018-03-20T13:07:56.132Z,81.73
2018-03-20T13:09:06.080Z,81.73
2018-03-20T13:10:15.634Z,81.35
2018-03-20T13:11:25.770Z,81.16
2018-03-20T13:12:35.571Z,81.29
2018-03-20T13:13:45.841Z,80.91
2018-03-20T13:14:55.925Z,80.82
2018-03-20T13:16:06.003Z,80.82
2018-03-20T13:17:16.115Z,81.1
2018-03-20T13:18:26.190Z,81.48
2018-03-20T13:19:36.007Z,81.29
2018-03-20T13:20:45.827Z,80.96
2018-03-20T13:21:55.879Z,81.01
2018-03-20T13:23:05.739Z,81.06
2018-03-20T13:24:16.026Z,81.86
2018-03-20T13:25:26.078Z,81.73
2018-03-20T13:26:36.143Z,81.96
2018-03-20T13:27:46.218Z,81.35
2018-03-20T13:28:56.331Z,81.54
2018-03-20T13:30:06.129Z,81.82
2018-03-20T13:31:16.194Z,81.35
2018-03-20T13:32:25.990Z,81.35
2018-03-20T13:33:35.260Z,81.73
2018-03-20T13:34:45.117Z,81.82
2018-03-20T13:35:55.182Z,81.92
2018-03-20T13:37:05.240Z,81.63
2018-03-20T13:38:15.300Z,81.54
2018-03-20T13:39:25.366Z,81.73
2018-03-20T13:40:35.450Z,81.73
2018-03-20T13:41:45.526Z,81.54
2018-03-20T13:42:55.589Z,81.54
2018-03-20T13:44:05.667Z,81.44
2018-03-20T13:45:15.732Z,81.73
2018-03-20T13:46:25.841Z,81.63
2018-03-20T13:47:35.634Z,81.63
2018-03-20T13:48:45.698Z,81.54
2018-03-20T13:49:55.753Z,81.63
2018-03-20T13:51:05.809Z,81.73
2018-03-20T13:52:15.946Z,81.73
2018-03-20T13:53:26.013Z,81.82
2018-03-20T13:54:35.820Z,81.73
2018-03-20T13:55:45.615Z,81.63
2018-03-20T13:56:55.684Z,81.63
2018-03-20T13:58:05.745Z,81.54
2018-03-20T13:59:15.814Z,81.63
2018-03-20T14:00:25.595Z,81.44
2018-03-20T14:01:35.687Z,81.44
2018-03-20T14:02:45.753Z,82.2
2018-03-20T14:03:55.541Z,81.58
2018-03-20T14:05:05.618Z,81.54
2018-03-20T14:06:15.198Z,81.82
2018-03-20T14:07:24.997Z,82.01
2018-03-20T14:08:35.056Z,81.92
2018-03-20T14:09:45.185Z,82.1
2018-03-20T14:10:55.251Z,82.01
2018-03-20T14:12:05.071Z,81.63
2018-03-20T14:13:14.875Z,82.01
2018-03-20T14:14:24.721Z,82.2
2018-03-20T14:15:34.323Z,81.92
2018-03-20T14:16:44.142Z,81.92
2018-03-20T14:17:53.693Z,82.2
2018-03-20T14:19:03.478Z,81.82
2018-03-20T14:20:13.545Z,82.1
2018-03-20T14:21:22.860Z,82.29
2018-03-20T14:22:32.425Z,82.05
2018-03-20T14:23:42.530Z,82.2
2018-03-20T14:24:52.385Z,82.29
2018-03-20T14:26:02.201Z,82.2
2018-03-20T14:27:11.876Z,82.01
2018-03-20T14:28:21.419Z,82.01
2018-03-20T14:29:31.564Z,81.92
2018-03-20T14:30:41.328Z,82.2
2018-03-20T14:31:51.159Z,81.92
2018-03-20T14:33:01.285Z,82.1
2018-03-20T14:34:11.089Z,81.68
2018-03-20T14:35:20.903Z,82.35
2018-03-20T14:36:31.086Z,82.73
2018-03-20T14:37:40.643Z,82.64
2018-03-20T14:38:50.710Z,82.64
2018-03-20T14:40:00.784Z,82.07
2018-03-20T14:41:10.340Z,82.35
2018-03-20T14:42:20.163Z,82.16
2018-03-20T14:43:29.223Z,82.16
2018-03-20T14:44:39.299Z,81.78
2018-03-20T14:45:49.171Z,82.07
2018-03-20T14:46:58.718Z,81.97
2018-03-20T14:48:08.267Z,82.07
2018-03-20T14:49:18.103Z,82.35
2018-03-20T14:50:27.635Z,82.35
2018-03-20T14:51:37.179Z,81.78
2018-03-20T14:52:46.979Z,82.35
2018-03-20T14:53:56.241Z,82.07
2018-03-20T14:55:06.054Z,82.16
2018-03-20T14:56:15.863Z,82.07
2018-03-20T14:57:25.721Z,82.35
2018-03-20T14:58:35.522Z,81.97
2018-03-20T14:59:45.605Z,82.73
2018-03-20T15:00:55.666Z,82.26
2018-03-20T15:02:05.747Z,82.35
2018-03-20T15:03:15.582Z,82.64
2018-03-20T15:04:25.683Z,82.26
2018-03-20T15:05:35.747Z,82.88
2018-03-20T15:06:45.552Z,82.97
2018-03-20T15:07:55.357Z,82.88
2018-03-20T15:09:05.185Z,82.88
2018-03-20T15:10:15.253Z,83.36
2018-03-20T15:11:25.098Z,83.16
2018-03-20T15:12:34.654Z,83.26
2018-03-20T15:13:44.728Z,83.16
2018-03-20T15:14:54.865Z,83.16
2018-03-20T15:16:05.017Z,83.07
2018-03-20T15:17:14.886Z,83.16
2018-03-20T15:18:24.471Z,83.16
2018-03-20T15:19:34.262Z,83.26
2018-03-20T15:20:43.806Z,83.03
2018-03-20T15:21:53.874Z,82.84
2018-03-20T15:23:03.936Z,82.93
2018-03-20T15:24:14.017Z,83.16
2018-03-20T15:25:24.074Z,83.03
2018-03-20T15:26:33.654Z,82.74
2018-03-20T15:27:43.551Z,82.97
2018-03-20T15:28:53.644Z,83.12
2018-03-20T15:30:03.712Z,83.16
2018-03-20T15:31:13.537Z,83.07
2018-03-20T15:32:23.077Z,83.26